createdAt,value
2019-02-02T00:00:33.000Z,51.3
2019-02-02T00:01:45.000Z,51.1
2019-02-02T00:02:57.000Z,52.3
2019-02-02T00:04:11.174Z,51.6
2019-02-02T00:05:22.000Z,50.8
2019-02-02T00:06:34.000Z,48.7
2019-02-02T00:07:46.000Z,49.4
2019-02-02T00:09:20.000Z,53.3
2019-02-02T00:11:01.000Z,55.1
2019-02-02T00:11:24.347Z,52.7
2019-02-02T00:12:35.000Z,51.2
2019-02-02T00:13:47.000Z,54.3
2019-02-02T00:14:59.000Z,53.3
2019-02-02T00:16:12.000Z,53.5
2019-02-02T00:17:24.000Z,51.4
2019-02-02T00:18:36.000Z,52.9
2019-02-02T00:19:48.000Z,53.5
2019-02-02T00:21:00.000Z,56.3
2019-02-02T00:22:13.000Z,55.2
2019-02-02T00:23:25.000Z,53.8
2019-02-02T00:24:37.000Z,56.6
2019-02-02T00:25:49.000Z,58.4
2019-02-02T00:27:01.000Z,56.8
2019-02-02T00:28:14.000Z,59.2
2019-02-02T00:29:26.000Z,56.7
2019-02-02T00:30:38.000Z,57.9
2019-02-02T00:31:51.674Z,54.7
2019-02-02T00:33:02.000Z,56.1
2019-02-02T00:34:16.065Z,61.9
2019-02-02T00:35:28.263Z,58.6
2019-02-02T00:36:39.000Z,58.6
2019-02-02T00:37:51.000Z,60.1
2019-02-02T00:39:03.000Z,60.8
2019-02-02T00:40:16.000Z,56.1
2019-02-02T00:41:28.000Z,58.8
2019-02-02T00:42:40.000Z,64.4
2019-02-02T00:43:52.000Z,60.9
2019-02-02T00:45:04.000Z,65.6
2019-02-02T00:46:17.000Z,63.9
2019-02-02T00:47:30.216Z,63.1
2019-02-02T00:48:41.000Z,68.7
2019-02-02T00:49:53.000Z,68.4
2019-02-02T00:51:05.000Z,61.7
2019-02-02T00:52:19.007Z,66.7
2019-02-02T00:53:30.000Z,60.6
2019-02-02T00:54:42.000Z,66.7
2019-02-02T00:55:54.000Z,67
2019-02-02T00:57:06.000Z,63.7
2019-02-02T00:58:18.000Z,61.1
2019-02-02T00:59:32.177Z,59.7
2019-02-02T01:00:44.375Z,59
2019-02-02T01:01:55.000Z,67.4
2019-02-02T01:03:07.000Z,60.5
2019-02-02T01:04:20.963Z,63.2
2019-02-02T01:05:32.000Z,67.7
2019-02-02T01:06:44.000Z,67.3
2019-02-02T01:07:57.547Z,65.7
2019-02-02T01:09:08.000Z,63.7
2019-02-02T01:10:20.000Z,62.3
2019-02-02T01:11:34.135Z,68.3
2019-02-02T01:12:45.000Z,63
2019-02-02T01:13:57.000Z,61.4
2019-02-02T01:15:09.000Z,65.3
2019-02-02T01:16:22.926Z,61.4
2019-02-02T01:17:34.000Z,61.2
2019-02-02T01:18:46.000Z,69.4
2019-02-02T01:19:58.000Z,65.5
2019-02-02T01:21:10.000Z,71.3
2019-02-02T01:22:22.000Z,70.2
2019-02-02T01:23:36.094Z,64.5
2019-02-02T01:24:47.000Z,65.2
2019-02-02T01:25:59.000Z,68
2019-02-02T01:27:11.000Z,69.4
2019-02-02T01:28:23.000Z,73.5
2019-02-02T01:29:36.000Z,68.4
2019-02-02T01:30:48.000Z,76.2
2019-02-02T01:32:00.000Z,70.5
2019-02-02T01:33:12.000Z,72.5
2019-02-02T01:34:24.000Z,72.8
2019-02-02T01:36:50.247Z,73.6
2019-02-02T01:38:02.446Z,74.8
2019-02-02T01:39:13.000Z,73.1
2019-02-02T01:40:25.000Z,73.3
2019-02-02T01:41:38.000Z,79.9
2019-02-02T01:42:50.000Z,74.2
2019-02-02T01:44:02.000Z,74.1
2019-02-02T01:45:14.000Z,75.6
2019-02-02T01:46:26.000Z,75.4
2019-02-02T01:47:40.009Z,74.3
2019-02-02T01:48:51.000Z,74.2
2019-02-02T01:50:03.000Z,74.3
2019-02-02T01:51:15.000Z,74.5
2019-02-02T01:52:27.000Z,73.4
2019-02-02T01:53:39.000Z,74.3
2019-02-02T01:54:52.000Z,74.9
2019-02-02T01:56:04.000Z,77.8
2019-02-02T01:57:16.000Z,75.5
2019-02-02T01:58:28.000Z,75.7
2019-02-02T01:59:41.976Z,76.3
2019-02-02T02:00:53.000Z,74.4
2019-02-02T02:02:05.000Z,77
2019-02-02T02:03:18.553Z,78.2
2019-02-02T02:04:29.000Z,78.9
2019-02-02T02:05:42.946Z,79.8
2019-02-02T02:06:54.000Z,81.4
2019-02-02T02:08:06.000Z,80.1
2019-02-02T02:09:18.000Z,86.5
2019-02-02T02:10:31.735Z,80
2019-02-02T02:11:43.931Z,88.7
2019-02-02T02:12:56.127Z,84.9
2019-02-02T02:14:08.032Z,82.4
2019-02-02T02:15:20.521Z,79.2
2019-02-02T02:16:32.720Z,83.2
2019-02-02T02:17:44.090Z,81.5
2019-02-02T02:18:57.107Z,78.8
2019-02-02T02:20:09.294Z,85
2019-02-02T02:21:21.508Z,85
2019-02-02T02:22:33.695Z,84.2
2019-02-02T02:24:58.085Z,87.3
2019-02-02T02:26:10.028Z,82
2019-02-02T02:27:22.473Z,80.2
2019-02-02T02:28:34.668Z,79.2
2019-02-02T02:29:46.859Z,86.8
2019-02-02T02:30:59.057Z,80.4
2019-02-02T02:32:11.025Z,83.9
2019-02-02T02:33:23.439Z,88.5
2019-02-02T02:34:35.637Z,84.2
2019-02-02T02:35:47.830Z,80.3
2019-02-02T02:37:00.024Z,83.6
2019-02-02T02:38:12.217Z,85.3
2019-02-02T02:39:24.423Z,92.6
2019-02-02T02:40:36.612Z,90.6
2019-02-02T02:41:48.796Z,93.4
2019-02-02T02:43:00.994Z,87.6
2019-02-02T02:45:25.382Z,92.5
2019-02-02T02:46:36.000Z,93.8
2019-02-02T02:47:48.000Z,83.6
2019-02-02T02:49:00.000Z,89.8
2019-02-02T02:50:13.000Z,92.9
2019-02-02T02:51:25.000Z,94.8
2019-02-02T02:52:37.000Z,91.5
2019-02-02T02:53:49.000Z,89.9
2019-02-02T02:55:01.000Z,87.9
2019-02-02T02:56:14.000Z,94.7
2019-02-02T02:57:26.000Z,95.3
2019-02-02T02:58:38.000Z,93.8
2019-02-02T02:59:50.000Z,87.4
2019-02-02T03:01:02.000Z,94.7
2019-02-02T03:02:15.000Z,91.6
2019-02-02T03:03:28.291Z,92.4
2019-02-02T03:04:39.000Z,92.6
2019-02-02T03:05:51.000Z,90.9
2019-02-02T03:07:03.000Z,90.6
2019-02-02T03:08:16.000Z,93.4
2019-02-02T03:09:28.000Z,91.3
2019-02-02T03:10:40.000Z,86.8
2019-02-02T03:11:53.650Z,94.1
2019-02-02T03:13:04.000Z,91.5
2019-02-02T03:14:17.000Z,95
2019-02-02T03:15:29.000Z,93.9
2019-02-02T03:16:41.000Z,93.9
2019-02-02T03:17:53.000Z,86.9
2019-02-02T03:19:05.000Z,91.8
2019-02-02T03:20:17.000Z,89.3
2019-02-02T03:21:30.000Z,99.4
2019-02-02T03:22:42.000Z,95.3
2019-02-02T03:23:54.000Z,95.6
2019-02-02T03:25:07.793Z,96.6
2019-02-02T03:26:19.980Z,95.7
2019-02-02T03:27:31.000Z,95.7
2019-02-02T03:28:44.373Z,95.4
2019-02-02T03:29:55.000Z,97.2
2019-02-02T03:31:07.000Z,91.4
2019-02-02T03:32:19.000Z,93
2019-02-02T03:33:32.000Z,92.5
2019-02-02T03:34:44.000Z,94.5
2019-02-02T03:35:57.532Z,92.5
2019-02-02T03:37:08.000Z,98.9
2019-02-02T03:38:20.000Z,92.6
2019-02-02T03:39:33.000Z,90.2
2019-02-02T03:40:45.000Z,99.8
2019-02-02T03:41:57.000Z,100.5
2019-02-02T03:43:09.000Z,90.4
2019-02-02T03:44:21.000Z,99.8
2019-02-02T03:45:34.000Z,93.6
2019-02-02T03:46:46.000Z,95.7
2019-02-02T03:47:59.475Z,95.6
2019-02-02T03:49:10.000Z,97.1
2019-02-02T03:50:22.000Z,92.4
2019-02-02T03:51:35.000Z,92.6
2019-02-02T03:52:47.000Z,95.7
2019-02-02T03:55:11.000Z,95.9
2019-02-02T03:56:23.000Z,100.5
2019-02-02T03:57:36.000Z,98.9
2019-02-02T03:58:48.000Z,99.1
2019-02-02T04:00:00.000Z,95.6
2019-02-02T04:01:13.608Z,98.3
2019-02-02T04:02:24.000Z,97.9
2019-02-02T04:03:36.000Z,96.4
2019-02-02T04:04:49.000Z,102
2019-02-02T04:06:01.000Z,104.8
2019-02-02T04:07:13.000Z,88.8
2019-02-02T04:09:37.000Z,94.8
2019-02-02T04:10:50.000Z,94.7
2019-02-02T04:12:02.000Z,101.3
2019-02-02T04:13:14.000Z,99.1
2019-02-02T04:14:26.000Z,99.6
2019-02-02T04:16:51.000Z,92.1
2019-02-02T04:18:03.000Z,94.8
2019-02-02T04:19:15.000Z,95.5
2019-02-02T04:20:27.000Z,98.1
2019-02-02T04:21:39.000Z,99.7
2019-02-02T04:22:52.000Z,95.9
2019-02-02T04:24:04.000Z,101.2
2019-02-02T04:25:16.000Z,96
2019-02-02T04:26:28.000Z,97.1
2019-02-02T04:27:40.000Z,100.8
2019-02-02T04:28:54.074Z,99.6
2019-02-02T04:30:06.280Z,99.7
2019-02-02T04:31:17.000Z,101.5
2019-02-02T04:32:29.000Z,99.8
2019-02-02T04:33:41.000Z,105.4
2019-02-02T04:34:54.000Z,100.3
2019-02-02T04:36:06.000Z,97.2
2019-02-02T04:37:19.438Z,99.8
2019-02-02T04:38:30.000Z,99.7
2019-02-02T04:39:42.000Z,99.6
2019-02-02T04:40:56.001Z,100.9
2019-02-02T04:42:08.237Z,99.7
2019-02-02T04:43:19.000Z,97.4
2019-02-02T04:44:31.000Z,100
2019-02-02T04:45:43.000Z,96.2
2019-02-02T04:46:55.000Z,101
2019-02-02T04:48:08.000Z,97.1
2019-02-02T04:49:20.000Z,112.1
2019-02-02T04:50:32.000Z,100.1
2019-02-02T04:51:44.000Z,103.6
2019-02-02T04:52:56.000Z,99.6
2019-02-02T04:54:09.000Z,102.9
2019-02-02T04:55:21.000Z,104.4
2019-02-02T04:56:33.000Z,97.6
2019-02-02T04:57:45.000Z,99.1
2019-02-02T04:58:57.000Z,101.9
2019-02-02T05:00:10.000Z,101.9
2019-02-02T05:01:23.033Z,97.1
2019-02-02T05:02:34.000Z,98.6
2019-02-02T05:03:46.000Z,103.5
2019-02-02T05:04:58.000Z,103.6
2019-02-02T05:06:12.107Z,99.9
2019-02-02T05:07:23.000Z,98.1
2019-02-02T05:08:35.000Z,99.9
2019-02-02T05:09:47.000Z,98.9
2019-02-02T05:10:59.000Z,95.1
2019-02-02T05:12:13.080Z,102.3
2019-02-02T05:13:24.000Z,103.2
2019-02-02T05:14:36.000Z,103.2
2019-02-02T05:15:49.657Z,97.1
2019-02-02T05:18:13.000Z,99.6
2019-02-02T05:19:25.000Z,98.8
2019-02-02T05:20:38.000Z,99.8
2019-02-02T05:21:49.000Z,103.7
2019-02-02T05:23:01.000Z,104.8
2019-02-02T05:24:13.000Z,97.4
2019-02-02T05:25:26.000Z,95.5
2019-02-02T05:26:38.000Z,105.9
2019-02-02T05:27:50.000Z,102.2
2019-02-02T05:29:02.000Z,102.9
2019-02-02T05:30:14.000Z,99.7
2019-02-02T05:31:27.000Z,96.7
2019-02-02T05:32:39.000Z,108.2
2019-02-02T05:33:51.000Z,97.1
2019-02-02T05:35:04.756Z,98.7
2019-02-02T05:36:15.000Z,99.6
2019-02-02T05:37:28.000Z,100.2
2019-02-02T05:38:40.000Z,104.1
2019-02-02T05:39:52.000Z,101.5
2019-02-02T05:41:05.732Z,101.4
2019-02-02T05:42:16.000Z,105.4
2019-02-02T05:43:29.000Z,99.4
2019-02-02T05:44:41.000Z,99.1
2019-02-02T05:45:54.515Z,96.1
2019-02-02T05:47:05.000Z,102.3
2019-02-02T05:48:18.900Z,110.7
2019-02-02T05:49:30.000Z,98.4
2019-02-02T05:50:42.000Z,94.7
2019-02-02T05:51:54.000Z,94
2019-02-02T05:53:06.000Z,101.2
2019-02-02T05:54:18.000Z,106
2019-02-02T05:55:31.000Z,97.7
2019-02-02T05:56:43.000Z,102.7
2019-02-02T05:57:55.000Z,98.4
2019-02-02T05:59:08.677Z,102.8
2019-02-02T06:00:20.841Z,102.6
2019-02-02T06:01:32.000Z,99.2
2019-02-02T06:02:44.000Z,97.1
2019-02-02T06:03:56.000Z,98.2
2019-02-02T06:05:08.000Z,94.8
2019-02-02T06:06:21.811Z,94.7
2019-02-02T06:07:34.001Z,99.3
2019-02-02T06:08:45.000Z,99.2
2019-02-02T06:09:57.000Z,100.3
2019-02-02T06:11:09.000Z,98.8
2019-02-02T06:12:22.781Z,94
2019-02-02T06:13:33.000Z,99.9
2019-02-02T06:14:46.000Z,102.9
2019-02-02T06:15:59.367Z,94.7
2019-02-02T06:17:10.000Z,96.4
2019-02-02T06:18:22.000Z,94.3
2019-02-02T06:19:34.000Z,94.9
2019-02-02T06:20:47.000Z,99.9
2019-02-02T06:21:59.000Z,96.9
2019-02-02T06:23:11.000Z,94.4
2019-02-02T06:24:24.719Z,90.5
2019-02-02T06:25:35.000Z,100.1
2019-02-02T06:26:48.000Z,97.5
2019-02-02T06:28:00.000Z,97.8
2019-02-02T06:29:12.000Z,98.4
2019-02-02T06:30:24.000Z,100.7
2019-02-02T06:31:36.000Z,98.9
2019-02-02T06:32:49.000Z,100.1
2019-02-02T06:34:01.000Z,94.6
2019-02-02T06:35:14.471Z,99
2019-02-02T06:36:25.000Z,97.9
2019-02-02T06:37:38.858Z,98.6
2019-02-02T06:38:50.000Z,97.2
2019-02-02T06:40:02.000Z,96.7
2019-02-02T06:41:14.000Z,99.3
2019-02-02T06:42:27.637Z,98
2019-02-02T06:43:39.834Z,97.2
2019-02-02T06:44:51.000Z,102.6
2019-02-02T06:46:04.231Z,102.4
2019-02-02T06:47:15.000Z,97
2019-02-02T06:48:27.000Z,104.8
2019-02-02T06:49:39.000Z,101.7
2019-02-02T06:50:51.000Z,99.7
2019-02-02T06:52:04.000Z,105.7
2019-02-02T06:53:17.388Z,107.3
2019-02-02T06:54:28.000Z,94.7
2019-02-02T06:55:40.000Z,103.7
2019-02-02T06:56:52.000Z,99.4
2019-02-02T06:58:05.000Z,99.4
2019-02-02T06:59:17.000Z,103.7
2019-02-02T07:00:29.000Z,99.8
2019-02-02T07:01:42.740Z,105
2019-02-02T07:02:53.000Z,102.6
2019-02-02T07:04:06.000Z,102.3
2019-02-02T07:05:18.000Z,97.7
2019-02-02T07:06:30.000Z,100.5
2019-02-02T07:07:42.000Z,103.1
2019-02-02T07:08:54.000Z,106.9
2019-02-02T07:10:07.000Z,103.1
2019-02-02T07:11:19.000Z,101.6
2019-02-02T07:12:32.489Z,101
2019-02-02T07:13:43.000Z,104
2019-02-02T07:14:55.000Z,106.5
2019-02-02T07:16:08.000Z,102.9
2019-02-02T07:17:20.000Z,102.3
2019-02-02T07:18:32.000Z,106.4
2019-02-02T07:19:44.000Z,97.9
2019-02-02T07:20:56.000Z,103.4
2019-02-02T07:22:09.000Z,96.8
2019-02-02T07:23:34.000Z,102.5
2019-02-02T07:24:34.436Z,106.1
2019-02-02T07:25:45.000Z,99.2
2019-02-02T07:26:57.000Z,100.8
2019-02-02T07:28:09.000Z,103.8
2019-02-02T07:29:22.000Z,105.3
2019-02-02T07:30:34.000Z,96.8
2019-02-02T07:31:53.000Z,106.7
2019-02-02T07:32:58.000Z,95.9
2019-02-02T07:34:10.000Z,102.4
2019-02-02T07:35:23.000Z,104.5
2019-02-02T07:36:36.377Z,104.3
2019-02-02T07:37:47.000Z,99.1
2019-02-02T07:38:59.000Z,101.5
2019-02-02T07:40:11.000Z,102.2
2019-02-02T07:41:26.000Z,97.7
2019-02-02T07:42:36.000Z,105
2019-02-02T07:43:48.000Z,101.1
2019-02-02T07:45:00.000Z,106.6
2019-02-02T07:46:12.000Z,99
2019-02-02T07:47:25.000Z,100
2019-02-02T07:48:38.031Z,98.1
2019-02-02T07:49:49.000Z,101.5
2019-02-02T07:51:01.000Z,106.6
2019-02-02T07:52:13.000Z,102.5
2019-02-02T07:53:27.010Z,107.7
2019-02-02T07:54:38.000Z,104.4
2019-02-02T07:55:50.000Z,103.5
2019-02-02T07:57:02.000Z,106.2
2019-02-02T07:58:14.000Z,106.4
2019-02-02T07:59:27.000Z,103.1
2019-02-02T08:00:40.259Z,108.6
2019-02-02T08:01:51.000Z,104.8
2019-02-02T08:03:03.000Z,99.5
2019-02-02T08:04:15.000Z,98.6
2019-02-02T08:05:29.040Z,104.5
2019-02-02T08:06:40.000Z,102.3
2019-02-02T08:07:53.042Z,101.3
2019-02-02T08:09:04.000Z,104
2019-02-02T08:10:16.000Z,97.6
2019-02-02T08:11:28.000Z,99.8
2019-02-02T08:12:41.000Z,104.1
2019-02-02T08:13:53.000Z,101.4
2019-02-02T08:15:05.000Z,97.3
2019-02-02T08:16:17.000Z,106.3
2019-02-02T08:17:29.000Z,115.7
2019-02-02T08:18:42.000Z,110.5
2019-02-02T08:19:54.000Z,107.9
2019-02-02T08:21:06.000Z,110.5
2019-02-02T08:22:18.000Z,102.2
2019-02-02T08:23:30.000Z,98.1
2019-02-02T08:24:43.000Z,96
2019-02-02T08:25:55.000Z,99.3
2019-02-02T08:27:07.000Z,106.1
2019-02-02T08:28:20.730Z,110.2
2019-02-02T08:29:31.000Z,98.5
2019-02-02T08:30:44.000Z,99
2019-02-02T08:31:57.308Z,99.7
2019-02-02T08:33:08.000Z,100.6
2019-02-02T08:34:20.000Z,101.2
2019-02-02T08:35:33.895Z,109.9
2019-02-02T08:36:45.000Z,106.5
2019-02-02T08:37:57.000Z,97.5
2019-02-02T08:39:09.000Z,96.2
2019-02-02T08:40:21.000Z,99.2
2019-02-02T08:41:34.086Z,100.5
2019-02-02T08:42:46.000Z,95.7
2019-02-02T08:43:59.253Z,105.7
2019-02-02T08:45:10.000Z,97
2019-02-02T08:46:22.000Z,98.9
2019-02-02T08:47:38.000Z,92.4
2019-02-02T08:48:48.029Z,98.7
2019-02-02T08:50:00.221Z,103.2
2019-02-02T08:51:11.000Z,94.8
2019-02-02T08:52:23.000Z,102.1
2019-02-02T08:53:35.000Z,99.8
2019-02-02T08:54:47.000Z,106.1
2019-02-02T08:56:01.018Z,96.4
2019-02-02T08:57:12.000Z,100.5
2019-02-02T08:58:24.000Z,90.7
2019-02-02T08:59:36.000Z,102.2
2019-02-02T09:00:49.961Z,94.3
2019-02-02T09:02:01.000Z,99.1
2019-02-02T09:03:13.000Z,100.5
2019-02-02T09:04:26.548Z,99.8
2019-02-02T09:05:37.000Z,101.5
2019-02-02T09:06:49.000Z,99.2
2019-02-02T09:08:02.000Z,99.7
2019-02-02T09:09:14.000Z,95.3
2019-02-02T09:10:26.000Z,93.4
2019-02-02T09:11:38.000Z,95.7
2019-02-02T09:12:50.000Z,96.5
2019-02-02T09:14:03.000Z,95.4
2019-02-02T09:15:15.000Z,95.5
2019-02-02T09:16:27.000Z,97.6
2019-02-02T09:17:39.000Z,99.6
2019-02-02T09:18:52.883Z,103.3
2019-02-02T09:20:04.000Z,97.7
2019-02-02T09:21:16.000Z,99.9
2019-02-02T09:22:28.000Z,104.8
2019-02-02T09:23:40.000Z,101.7
2019-02-02T09:24:53.851Z,96.1
2019-02-02T09:26:05.000Z,99.4
2019-02-02T09:27:17.000Z,97.7
2019-02-02T09:28:29.000Z,103.4
2019-02-02T09:29:41.000Z,94.1
2019-02-02T09:32:05.000Z,96
2019-02-02T09:33:18.000Z,93.3
2019-02-02T09:34:31.402Z,96.7
2019-02-02T09:35:42.000Z,97.2
2019-02-02T09:36:55.792Z,98.1
2019-02-02T09:38:06.000Z,95.6
2019-02-02T09:39:19.000Z,97.2
2019-02-02T09:40:31.000Z,96.6
2019-02-02T09:41:43.000Z,97.9
2019-02-02T09:42:55.000Z,104.1
2019-02-02T09:44:07.000Z,98.2
2019-02-02T09:45:20.000Z,98.2
2019-02-02T09:46:32.000Z,98.2
2019-02-02T09:47:44.000Z,102.6
2019-02-02T09:48:56.000Z,104.9
2019-02-02T09:50:08.000Z,103.6
2019-02-02T09:51:21.000Z,96.9
2019-02-02T09:52:34.321Z,99.6
2019-02-02T09:53:45.000Z,102.9
2019-02-02T09:54:58.701Z,101.4
2019-02-02T09:56:10.891Z,98.8
2019-02-02T09:57:22.000Z,105.5
2019-02-02T09:58:34.000Z,97.9
2019-02-02T09:59:46.000Z,103.6
2019-02-02T10:00:59.665Z,102.1
2019-02-02T10:02:10.000Z,98.9
2019-02-02T10:03:23.000Z,99.9
2019-02-02T10:04:35.000Z,90.6
2019-02-02T10:05:47.000Z,93.1
2019-02-02T10:07:03.000Z,100.4
2019-02-02T10:08:12.833Z,106.6
2019-02-02T10:09:24.000Z,106.5
2019-02-02T10:10:36.000Z,104.3
2019-02-02T10:11:48.000Z,101.4
2019-02-02T10:13:01.609Z,98.8
2019-02-02T10:14:12.000Z,94.6
2019-02-02T10:15:24.000Z,97.6
2019-02-02T10:16:37.000Z,102.8
2019-02-02T10:17:50.383Z,103.3
2019-02-02T10:19:07.000Z,107.3
2019-02-02T10:20:13.000Z,105.9
2019-02-02T10:21:25.000Z,103.2
2019-02-02T10:22:38.000Z,98
2019-02-02T10:23:51.354Z,97.5
2019-02-02T10:25:02.000Z,106.5
2019-02-02T10:26:14.000Z,95.3
2019-02-02T10:27:26.000Z,92.8
2019-02-02T10:28:40.129Z,100.7
2019-02-02T10:29:51.000Z,106.5
2019-02-02T10:31:03.000Z,105.7
2019-02-02T10:32:15.000Z,106.6
2019-02-02T10:33:27.000Z,95.7
2019-02-02T10:34:40.000Z,106.8
2019-02-02T10:35:52.000Z,102.3
2019-02-02T10:37:05.490Z,101.4
2019-02-02T10:38:16.000Z,99.9
2019-02-02T10:39:28.000Z,100.9
2019-02-02T10:40:41.000Z,96.5
2019-02-02T10:41:53.000Z,107.4
2019-02-02T10:43:05.000Z,102.1
2019-02-02T10:45:29.000Z,101.8
2019-02-02T10:46:42.000Z,96.6
2019-02-02T10:47:54.000Z,98.5
2019-02-02T10:49:07.430Z,99.5
2019-02-02T10:50:18.000Z,102.8
2019-02-02T10:51:30.000Z,101.2
2019-02-02T10:52:42.000Z,94
2019-02-02T10:53:55.000Z,98.7
2019-02-02T10:55:07.000Z,98
2019-02-02T10:56:20.594Z,94.6
2019-02-02T10:57:31.000Z,89.9
2019-02-02T10:58:43.000Z,95.8
2019-02-02T10:59:57.178Z,102
2019-02-02T11:01:08.000Z,100.4
2019-02-02T11:02:20.000Z,99.9
2019-02-02T11:03:32.000Z,98.2
2019-02-02T11:04:44.000Z,103.1
2019-02-02T11:05:57.000Z,101.4
2019-02-02T11:07:09.000Z,104.3
2019-02-02T11:08:21.000Z,102.9
2019-02-02T11:09:33.000Z,102.3
2019-02-02T11:10:45.000Z,99.8
2019-02-02T11:12:14.000Z,99.6
2019-02-02T11:13:16.000Z,104.1
2019-02-02T11:14:22.000Z,101.6
2019-02-02T11:15:34.000Z,98.1
2019-02-02T11:16:46.000Z,96.2
2019-02-02T11:18:00.090Z,99.2
2019-02-02T11:19:11.000Z,98.4
2019-02-02T11:20:24.474Z,99
2019-02-02T11:21:36.668Z,103
2019-02-02T11:22:47.000Z,102.6
2019-02-02T11:24:00.000Z,102.6
2019-02-02T11:25:13.248Z,109
2019-02-02T11:26:24.000Z,104.8
2019-02-02T11:27:36.000Z,104.1
2019-02-02T11:28:48.000Z,102.8
2019-02-02T11:30:02.002Z,101.3
2019-02-02T11:31:14.223Z,104.8
2019-02-02T11:32:26.416Z,108
2019-02-02T11:33:37.000Z,110.3
2019-02-02T11:34:49.000Z,106.6
2019-02-02T11:36:01.000Z,105.8
2019-02-02T11:37:14.000Z,101.1
2019-02-02T11:38:26.000Z,107.1
2019-02-02T11:39:38.000Z,104.4
2019-02-02T11:40:51.776Z,101.6
2019-02-02T11:42:02.000Z,99
2019-02-02T11:43:16.159Z,104.3
2019-02-02T11:44:27.000Z,115.9
2019-02-02T11:45:39.000Z,114.9
2019-02-02T11:46:51.000Z,108.9
2019-02-02T11:48:03.000Z,101.7
2019-02-02T11:49:17.137Z,98.3
2019-02-02T11:50:28.000Z,100.4
2019-02-02T11:51:40.000Z,105.4
2019-02-02T11:52:52.000Z,111.3
2019-02-02T11:54:04.000Z,109
2019-02-02T11:55:17.000Z,120.2
2019-02-02T11:56:29.000Z,107.4
2019-02-02T11:57:41.000Z,102.9
2019-02-02T11:58:53.000Z,106.9
2019-02-02T12:00:05.000Z,103.8
2019-02-02T12:01:19.071Z,105.2
2019-02-02T12:02:30.000Z,101
2019-02-02T12:03:42.000Z,102.8
2019-02-02T12:04:54.000Z,103
2019-02-02T12:06:06.000Z,97.1
2019-02-02T12:07:19.000Z,97.1
2019-02-02T12:08:31.000Z,100.8
2019-02-02T12:09:43.000Z,104
2019-02-02T12:10:55.000Z,104.2
2019-02-02T12:12:07.000Z,102.3
2019-02-02T12:13:21.021Z,97.6
2019-02-02T12:14:33.223Z,106.9
2019-02-02T12:15:44.000Z,109
2019-02-02T12:16:56.000Z,104.9
2019-02-02T12:18:08.000Z,102.6
2019-02-02T12:19:20.000Z,105.6
2019-02-02T12:20:33.000Z,107.6
2019-02-02T12:21:45.000Z,108.9
2019-02-02T12:22:57.000Z,104.6
2019-02-02T12:24:09.000Z,112.7
2019-02-02T12:25:21.000Z,107.3
2019-02-02T12:26:34.000Z,102.8
2019-02-02T12:27:47.370Z,103.8
2019-02-02T12:28:58.000Z,112.7
2019-02-02T12:30:11.757Z,108.7
2019-02-02T12:31:22.000Z,113.7
2019-02-02T12:32:35.000Z,115.1
2019-02-02T12:33:48.343Z,112.4
2019-02-02T12:34:59.000Z,112.8
2019-02-02T12:36:11.000Z,117.3
2019-02-02T12:37:24.093Z,122.2
2019-02-02T12:38:36.000Z,115.8
2019-02-02T12:39:48.000Z,115.3
2019-02-02T12:41:00.000Z,116.7
2019-02-02T12:42:13.720Z,113.8
2019-02-02T12:43:25.911Z,114.4
2019-02-02T12:44:37.000Z,109.8
2019-02-02T12:45:50.305Z,115
2019-02-02T12:47:01.000Z,112.6
2019-02-02T12:48:13.000Z,114.8
2019-02-02T12:49:26.892Z,112.7
2019-02-02T12:50:38.000Z,108.8
2019-02-02T12:51:50.000Z,112.9
2019-02-02T12:53:02.000Z,115.8
2019-02-02T12:54:14.000Z,111.8
2019-02-02T12:56:40.062Z,121.9
2019-02-02T12:57:52.259Z,122.9
2019-02-02T12:59:03.000Z,119
2019-02-02T13:00:15.000Z,123.6
2019-02-02T13:01:28.842Z,120.3
2019-02-02T13:02:40.000Z,117.5
2019-02-02T13:03:52.000Z,121.7
2019-02-02T13:05:04.000Z,118.5
2019-02-02T13:06:16.000Z,122
2019-02-02T13:07:28.000Z,120.6
2019-02-02T13:08:42.025Z,115.6
2019-02-02T13:09:53.000Z,120.5
2019-02-02T13:11:05.000Z,112.6
2019-02-02T13:12:18.059Z,125.5
2019-02-02T13:13:29.000Z,126.4
2019-02-02T13:14:41.000Z,124.5
2019-02-02T13:15:54.000Z,115.4
2019-02-02T13:17:06.000Z,121.1
2019-02-02T13:18:18.000Z,121
2019-02-02T13:19:30.000Z,113.4
2019-02-02T13:20:43.968Z,114.1
2019-02-02T13:21:55.000Z,114.4
2019-02-02T13:23:07.000Z,117.3
2019-02-02T13:24:20.560Z,127.2
2019-02-02T13:25:31.000Z,119.7
2019-02-02T13:26:43.000Z,123.8
2019-02-02T13:27:56.000Z,116.4
2019-02-02T13:29:08.000Z,119.3
2019-02-02T13:30:20.000Z,121.6
2019-02-02T13:31:32.000Z,112.5
2019-02-02T13:32:45.092Z,119.3
2019-02-02T13:33:57.000Z,120.1
2019-02-02T13:35:09.000Z,127.5
2019-02-02T13:36:21.000Z,116.5
2019-02-02T13:37:34.713Z,119.4
2019-02-02T13:38:45.000Z,111.5
2019-02-02T13:39:58.000Z,121
2019-02-02T13:41:10.000Z,107
2019-02-02T13:43:34.000Z,101.4
2019-02-02T13:44:46.000Z,106
2019-02-02T13:45:59.000Z,111.7
2019-02-02T13:47:11.000Z,102.9
2019-02-02T13:48:23.000Z,98.7
2019-02-02T13:49:36.066Z,98.4
2019-02-02T13:50:47.000Z,101.7
2019-02-02T13:52:00.000Z,99.4
2019-02-02T13:53:12.000Z,96.7
2019-02-02T13:54:24.000Z,95
2019-02-02T13:55:36.000Z,103.4
2019-02-02T13:56:48.000Z,93.1
2019-02-02T13:58:01.000Z,100.6
2019-02-02T13:59:13.000Z,91.1
2019-02-02T14:00:25.000Z,91.9
2019-02-02T14:01:37.000Z,86.8
2019-02-02T14:02:49.000Z,82
2019-02-02T14:04:01.000Z,88.9
2019-02-02T14:05:14.000Z,79.9
2019-02-02T14:06:26.000Z,83.1
2019-02-02T14:07:38.000Z,85.3
2019-02-02T14:08:51.798Z,80.6
2019-02-02T14:10:02.000Z,80.5
2019-02-02T14:11:15.000Z,81
2019-02-02T14:12:27.000Z,77.5
2019-02-02T14:13:40.579Z,80
2019-02-02T14:14:51.000Z,84
2019-02-02T14:16:03.000Z,86.2
2019-02-02T14:17:16.000Z,88.2
2019-02-02T14:18:28.000Z,82.2
2019-02-02T14:19:40.000Z,82.2
2019-02-02T14:20:52.000Z,83.6
2019-02-02T14:23:17.000Z,77.5
2019-02-02T14:24:29.000Z,79.3
2019-02-02T14:25:41.000Z,78.1
2019-02-02T14:26:53.000Z,75.1
2019-02-02T14:28:05.000Z,81.3
2019-02-02T14:30:30.000Z,73.7
2019-02-02T14:31:42.000Z,79.8
2019-02-02T14:32:54.000Z,76.5
2019-02-02T14:34:06.000Z,79.5
2019-02-02T14:35:19.000Z,76.6
2019-02-02T14:36:31.000Z,77
2019-02-02T14:37:43.000Z,76.3
2019-02-02T14:38:55.000Z,77.3
2019-02-02T14:40:07.000Z,71.8
2019-02-02T14:41:20.000Z,79.2
2019-02-02T14:42:32.000Z,78.6
2019-02-02T14:43:44.000Z,78.7
2019-02-02T14:44:56.000Z,74.7
2019-02-02T14:46:09.869Z,78.4
2019-02-02T14:47:21.000Z,72.3
2019-02-02T14:48:33.000Z,80.4
2019-02-02T14:49:46.044Z,72.1
2019-02-02T14:50:58.639Z,77.1
2019-02-02T14:52:09.000Z,67.8
2019-02-02T14:53:22.000Z,77.4
2019-02-02T14:54:35.229Z,77.8
2019-02-02T14:55:46.000Z,78.8
2019-02-02T14:56:58.000Z,77.4
2019-02-02T14:58:10.000Z,76.2
2019-02-02T14:59:22.000Z,75.4
2019-02-02T15:00:35.000Z,77.2
2019-02-02T15:01:48.404Z,79.1
2019-02-02T15:02:59.000Z,78.2
2019-02-02T15:04:11.000Z,81.9
2019-02-02T15:05:23.000Z,81
2019-02-02T15:06:36.000Z,81.5
2019-02-02T15:07:48.000Z,89.4
2019-02-02T15:09:00.000Z,84.2
2019-02-02T15:10:12.000Z,83
2019-02-02T15:11:24.000Z,91.9
2019-02-02T15:12:38.166Z,92.4
2019-02-02T15:13:49.000Z,98.3
2019-02-02T15:15:01.000Z,96.3
2019-02-02T15:16:13.000Z,100.7
2019-02-02T15:17:25.000Z,110.2
2019-02-02T15:18:38.000Z,97.1
2019-02-02T15:19:50.000Z,104
2019-02-02T15:21:02.000Z,107.7
2019-02-02T15:22:14.000Z,108.9
2019-02-02T15:23:26.000Z,105.7
2019-02-02T15:24:39.000Z,103.3
2019-02-02T15:25:51.000Z,94.9
2019-02-02T15:27:03.000Z,100.6
2019-02-02T15:28:15.000Z,103.8
2019-02-02T15:29:27.000Z,97
2019-02-02T15:30:40.000Z,102
2019-02-02T15:31:52.000Z,99.1
2019-02-02T15:33:04.000Z,102.3
2019-02-02T15:34:16.000Z,98.1
2019-02-02T15:35:28.000Z,110.3
2019-02-02T15:36:41.000Z,94.4
2019-02-02T15:37:54.265Z,96.9
2019-02-02T15:39:05.000Z,96.1
2019-02-02T15:40:17.000Z,93.2
2019-02-02T15:41:30.854Z,94.4
2019-02-02T15:42:42.000Z,93.8
2019-02-02T15:43:54.000Z,96.3
2019-02-02T15:45:06.000Z,93.9
2019-02-02T15:46:18.000Z,87.3
2019-02-02T15:47:30.000Z,95.4
2019-02-02T15:48:44.035Z,92.4
2019-02-02T15:49:55.000Z,99.9
2019-02-02T15:51:07.000Z,96.2
2019-02-02T15:52:19.000Z,94
2019-02-02T15:53:31.000Z,90.1
2019-02-02T15:54:43.000Z,90.2
2019-02-02T15:55:57.204Z,87.3
2019-02-02T15:57:08.000Z,85.4
2019-02-02T15:58:20.000Z,95
2019-02-02T15:59:32.000Z,90.5
2019-02-02T16:00:44.000Z,93.6
2019-02-02T16:01:58.185Z,84.9
2019-02-02T16:03:10.376Z,86.2
2019-02-02T16:04:21.000Z,84.1
2019-02-02T16:05:33.000Z,86.7
2019-02-02T16:06:46.966Z,83.9
2019-02-02T16:07:58.000Z,84.8
2019-02-02T16:09:10.000Z,85.5